Time;durP1;ratioP1;P1;durP2;ratioP2;P2;SDS_P1;SDS_P2;PMS_P1;PMS_P2;Temp;Humidity;BMP_temperature;BMP_pressure;BME280_temperature;BME280_humidity;BME280_pressure;Samples;Min_cycle;Max_cycle;Signal;HPM_P1;HPM_P2
2022/04/15 00:01:27;;;;;;;3.47;1.02;;;;;;;10.53;100.00;100651.75;7399616;19;20043;-81
2022/04/15 00:03:53;;;;;;;1.98;1.70;;;;;;;10.48;100.00;100655.91;7401340;19;20022;-81
2022/04/15 00:06:21;;;;;;;4.28;1.15;;;;;;;10.47;100.00;100650.78;7396858;19;20025;-80
2022/04/15 00:08:47;;;;;;;2.35;1.23;;;;;;;10.58;100.00;100659.53;7395597;19;20687;-81
2022/04/15 00:11:14;;;;;;;3.05;1.77;;;;;;;10.63;100.00;100659.69;7392491;19;20022;-80
2022/04/15 00:13:41;;;;;;;2.90;1.63;;;;;;;10.71;100.00;100662.22;7394288;19;20018;-78
2022/04/15 00:16:08;;;;;;;1.90;1.40;;;;;;;10.79;100.00;100664.28;7392425;19;20039;-80
2022/04/15 00:18:36;;;;;;;1.33;1.23;;;;;;;10.84;100.00;100672.03;7394302;19;20014;-79
2022/04/15 00:21:03;;;;;;;1.63;1.08;;;;;;;10.98;100.00;100671.47;7395997;19;20381;-80
2022/04/15 00:23:30;;;;;;;1.35;0.90;;;;;;;11.08;100.00;100661.16;7398656;19;20018;-79
2022/04/15 00:25:58;;;;;;;1.13;1.13;;;;;;;11.14;100.00;100667.66;7396438;19;20355;-80
2022/04/15 00:28:24;;;;;;;7.32;1.25;;;;;;;11.14;100.00;100665.66;7393110;19;20014;-79
2022/04/15 00:30:51;;;;;;;4.50;1.33;;;;;;;11.18;100.00;100671.84;7392521;19;20515;-80
2022/04/15 00:33:17;;;;;;;1.17;0.68;;;;;;;11.20;100.00;100677.75;7394033;19;20039;-78
2022/04/15 00:35:43;;;;;;;4.90;1.30;;;;;;;11.23;100.00;100667.69;7395617;19;20014;-81
2022/04/15 00:38:09;;;;;;;0.32;0.32;;;;;;;11.26;100.00;100672.38;7392593;19;20349;-81
2022/04/15 00:40:35;;;;;;;1.77;1.30;;;;;;;11.15;100.00;100672.00;7396991;19;20480;-79
2022/04/15 00:43:02;;;;;;;9.10;1.02;;;;;;;11.15;100.00;100672.00;7395888;19;20017;-78
2022/04/15 00:45:28;;;;;;;1.42;1.05;;;;;;;11.20;100.00;100674.97;7395228;19;20054;-78
2022/04/15 00:47:59;;;;;;;0.90;0.88;;;;;;;11.14;100.00;100670.44;7391407;19;20018;-79
2022/04/15 00:50:27;;;;;;;;;;;;;;;11.18;100.00;100679.44;7398323;19;20447;-80
2022/04/15 00:52:55;;;;;;;2.95;0.90;;;;;;;11.15;100.00;100672.00;7394188;19;19922;-80
2022/04/15 00:55:23;;;;;;;1.58;0.90;;;;;;;11.15;100.00;100672.00;7391005;19;20352;-78
2022/04/15 00:57:51;;;;;;;1.70;1.08;;;;;;;11.12;100.00;100672.91;7392313;19;20026;-80
2022/04/15 01:00:19;;;;;;;2.80;1.45;;;;;;;11.10;100.00;100669.81;7394755;19;20024;-81
2022/04/15 01:02:46;;;;;;;0.65;0.55;;;;;;;11.04;100.00;100666.09;7393238;19;20026;-80
2022/04/15 01:05:13;;;;;;;0.95;0.73;;;;;;;10.90;100.00;100669.41;7395702;19;20035;-81
2022/04/15 01:07:42;;;;;;;0.88;0.70;;;;;;;10.79;100.00;100671.84;7399119;19;20046;-80
2022/04/15 01:10:11;;;;;;;1.63;1.25;;;;;;;10.68;100.00;100660.38;7393627;19;20014;-81
2022/04/15 01:12:40;;;;;;;13.48;1.17;;;;;;;10.57;100.00;100667.09;7390456;19;20021;-81
2022/04/15 01:15:10;;;;;;;3.45;0.95;;;;;;;10.58;100.00;100663.09;7394957;19;20022;-82
2022/04/15 01:17:37;;;;;;;1.13;1.00;;;;;;;10.52;100.00;100656.56;7394539;19;20014;-81
2022/04/15 01:20:07;;;;;;;2.38;1.00;;;;;;;10.43;100.00;100664.06;7396604;19;20015;-81
2022/04/15 01:22:42;;;;;;;0.85;0.75;;;;;;;10.45;100.00;100659.63;7394826;19;20022;-81
2022/04/15 01:25:10;;;;;;;4.25;0.93;;;;;;;10.41;100.00;100664.53;7392067;19;20096;-81
2022/04/15 01:27:39;;;;;;;2.85;1.48;;;;;;;10.37;100.00;100663.88;7394630;19;20018;-81
2022/04/15 01:30:14;;;;;;;4.88;0.68;;;;;;;10.33;100.00;100673.63;7394514;19;20021;-81
2022/04/15 01:32:40;;;;;;;0.98;0.77;;;;;;;10.26;100.00;100669.09;7394415;19;20010;-80
2022/04/15 01:35:08;;;;;;;2.35;1.10;;;;;;;10.22;100.00;100660.06;7392009;19;20044;-80
2022/04/15 01:37:36;;;;;;;2.78;1.10;;;;;;;10.23;100.00;100669.97;7393517;19;20062;-80
2022/04/15 01:40:04;;;;;;;1.27;0.85;;;;;;;10.23;100.00;100675.53;7393960;19;20484;-80
2022/04/15 01:42:31;;;;;;;2.83;1.23;;;;;;;10.21;100.00;100678.00;7392804;19;20024;-81
2022/04/15 01:44:58;;;;;;;2.47;1.02;;;;;;;10.16;100.00;100683.38;7392090;19;20025;-81
2022/04/15 01:47:25;;;;;;;1.48;1.08;;;;;;;10.07;100.00;100680.50;7391975;19;20453;-81
2022/04/15 01:49:51;;;;;;;2.35;1.10;;;;;;;10.02;100.00;100686.63;7393587;19;20354;-80
2022/04/15 01:52:18;;;;;;;2.78;1.35;;;;;;;9.99;100.00;100693.09;7394359;19;20019;-80
2022/04/15 01:54:48;;;;;;;0.88;0.88;;;;;;;9.98;100.00;100686.78;7394078;19;20003;-80
2022/04/15 01:57:15;;;;;;;2.78;0.77;;;;;;;10.07;100.00;100691.63;7392583;19;20010;-81
2022/04/15 01:59:42;;;;;;;1.02;0.25;;;;;;;10.00;100.00;100689.09;7391111;19;20477;-81
2022/04/15 02:02:09;;;;;;;3.92;0.73;;;;;;;9.93;100.00;100690.91;7390966;19;20074;-81
2022/04/15 02:04:36;;;;;;;12.07;0.77;;;;;;;9.90;100.00;100696.56;7394078;19;20033;-81
2022/04/15 02:07:03;;;;;;;0.73;0.70;;;;;;;9.75;100.00;100698.28;7392051;19;20039;-81
2022/04/15 02:09:29;;;;;;;5.53;0.93;;;;;;;9.72;100.00;100699.22;7392240;19;20372;-81
2022/04/15 02:11:55;;;;;;;0.60;0.55;;;;;;;9.69;100.00;100703.66;7389054;19;20015;-81
2022/04/15 02:14:22;;;;;;;4.20;2.30;;;;;;;9.65;100.00;100710.56;7388857;19;20082;-81
2022/04/15 02:16:50;;;;;;;1.50;1.40;;;;;;;9.56;100.00;100704.91;7388735;19;20039;-81
2022/04/15 02:19:16;;;;;;;0.55;0.55;;;;;;;9.48;100.00;100709.16;7390774;19;20041;-81
2022/04/15 02:21:42;;;;;;;2.15;1.05;;;;;;;9.40;100.00;100708.59;7392131;19;20014;-82
2022/04/15 02:24:09;;;;;;;2.30;0.75;;;;;;;9.43;100.00;100706.94;7393359;19;20093;-80
2022/04/15 02:26:35;;;;;;;1.23;1.08;;;;;;;9.42;100.00;100711.69;7393719;19;20036;-81
2022/04/15 02:29:01;;;;;;;1.13;1.05;;;;;;;9.42;100.00;100710.94;7395234;19;20014;-80
2022/04/15 02:31:27;;;;;;;2.00;0.52;;;;;;;9.37;100.00;100703.16;7390757;19;20017;-83
2022/04/15 02:33:53;;;;;;;1.08;0.40;;;;;;;9.34;100.00;100704.03;7391398;19;20562;-80
2022/04/15 02:36:19;;;;;;;2.10;0.57;;;;;;;9.28;100.00;100706.63;7389343;19;20094;-81
2022/04/15 02:38:45;;;;;;;1.65;1.10;;;;;;;9.22;100.00;100700.06;7389804;19;20369;-81
2022/04/15 02:41:12;;;;;;;1.10;1.05;;;;;;;9.20;100.00;100696.19;7390970;19;20487;-81
2022/04/15 02:43:39;;;;;;;3.22;1.13;;;;;;;9.20;100.00;100694.19;7392475;19;20007;-80
2022/04/15 02:46:07;;;;;;;4.30;0.60;;;;;;;9.15;100.00;100689.97;7390638;19;20018;-80
2022/04/15 02:48:35;;;;;;;1.17;1.00;;;;;;;9.11;100.00;100692.06;7391708;19;20504;-81
2022/04/15 02:51:02;;;;;;;2.00;0.82;;;;;;;8.99;100.00;100689.28;7390978;19;20010;-81
2022/04/15 02:53:29;;;;;;;1.20;0.77;;;;;;;8.98;100.00;100687.72;7389955;19;20029;-81
2022/04/15 02:55:57;;;;;;;0.77;0.77;;;;;;;8.98;100.00;100682.19;7388756;19;20358;-80
2022/04/15 02:58:23;;;;;;;9.32;1.95;;;;;;;8.92;100.00;100695.81;7392352;19;20042;-80
2022/04/15 03:00:50;;;;;;;1.85;1.08;;;;;;;8.89;100.00;100696.72;7393838;19;20035;-80
2022/04/15 03:03:16;;;;;;;0.98;0.98;;;;;;;8.84;100.00;100700.06;7391617;19;20027;-80
2022/04/15 03:05:43;;;;;;;0.63;0.20;;;;;;;8.78;100.00;100707.38;7391903;19;20536;-80
2022/04/15 03:08:09;;;;;;;5.43;1.20;;;;;;;8.78;100.00;100701.03;7388683;19;20022;-78
2022/04/15 03:10:36;;;;;;;4.82;1.02;;;;;;;8.77;100.00;100708.59;7391799;19;20019;-81
2022/04/15 03:13:02;;;;;;;5.68;1.15;;;;;;;8.73;100.00;100707.91;7388582;19;20049;-81
2022/04/15 03:15:28;;;;;;;0.68;0.68;;;;;;;8.66;100.00;100710.94;7390455;19;20026;-78
2022/04/15 03:17:54;;;;;;;1.17;1.08;;;;;;;8.66;100.00;100710.16;7390748;19;20382;-80
2022/04/15 03:20:21;;;;;;;0.95;0.52;;;;;;;8.71;100.00;100702.03;7399884;19;20342;-80
2022/04/15 03:22:47;;;;;;;2.90;1.13;;;;;;;8.62;100.00;100709.47;7397716;19;20010;-81
2022/04/15 03:25:19;;;;;;;1.05;0.77;;;;;;;8.53;100.00;100712.13;7397542;19;20597;-78
2022/04/15 03:27:46;;;;;;;2.22;0.73;;;;;;;8.43;100.00;100702.88;7398159;19;20584;-82
2022/04/15 03:30:14;;;;;;;3.08;1.02;;;;;;;8.43;100.00;100702.88;7399060;19;20026;-81
2022/04/15 03:32:51;;;;;;;1.50;1.15;;;;;;;8.42;100.00;100701.31;7399750;19;20033;-81
2022/04/15 03:35:20;;;;;;;2.35;1.60;;;;;;;8.40;100.00;100704.53;7399123;19;20025;-79
2022/04/15 03:37:55;;;;;;;2.50;1.15;;;;;;;8.39;100.00;100713.28;7398563;19;20018;-79
2022/04/15 03:40:21;;;;;;;2.22;0.88;;;;;;;8.40;100.00;100706.53;7394642;19;20029;-81
2022/04/15 03:42:56;;;;;;;3.92;1.00;;;;;;;8.43;100.00;100713.97;7401893;19;20010;-80
2022/04/15 03:45:23;;;;;;;2.15;0.98;;;;;;;8.40;100.00;100712.09;7395959;19;20018;-79
2022/04/15 03:47:52;;;;;;;2.00;0.70;;;;;;;8.39;100.00;100704.97;7396289;19;20772;-80
2022/04/15 03:50:18;;;;;;;0.85;0.73;;;;;;;8.39;100.00;100702.97;7394154;19;20015;-79
2022/04/15 03:52:46;;;;;;;0.55;0.55;;;;;;;8.35;100.00;100707.84;7396370;19;20032;-79
2022/04/15 03:55:14;;;;;;;2.67;0.73;;;;;;;8.33;100.00;100706.72;7400895;19;20480;-79
2022/04/15 03:57:40;;;;;;;0.60;0.60;;;;;;;8.33;100.00;100704.75;7398878;19;20015;-80
2022/04/15 04:00:12;;;;;;;5.57;0.70;;;;;;;8.32;100.00;100705.94;7393838;19;20018;-79
2022/04/15 04:02:38;;;;;;;;;;;;;;;8.23;100.00;100703.00;7397029;19;20026;-78
2022/04/15 04:05:05;;;;;;;0.95;0.57;;;;;;;8.17;100.00;100701.19;7394195;19;19919;-79
2022/04/15 04:07:31;;;;;;;4.13;1.25;;;;;;;8.13;100.00;100704.06;7396419;19;20031;-79
2022/04/15 04:09:58;;;;;;;0.70;0.70;;;;;;;8.16;100.00;100705.19;7394858;19;20034;-79
2022/04/15 04:12:24;;;;;;;1.75;0.98;;;;;;;8.11;100.00;100698.19;7395408;19;20018;-79
2022/04/15 04:14:50;;;;;;;3.55;0.60;;;;;;;8.15;100.00;100706.41;7397145;19;20029;-79
2022/04/15 04:17:16;;;;;;;3.13;1.00;;;;;;;8.15;100.00;100695.31;7400803;19;20045;-79
2022/04/15 04:19:42;;;;;;;0.40;0.40;;;;;;;8.12;100.00;100698.97;7395132;19;20035;-79
2022/04/15 04:22:08;;;;;;;0.40;0.40;;;;;;;8.10;100.00;100690.31;7394510;19;20018;-80
2022/04/15 04:24:35;;;;;;;0.60;0.60;;;;;;;8.08;100.00;100692.72;7396491;19;20449;-80
2022/04/15 04:27:01;;;;;;;0.70;0.65;;;;;;;8.05;100.00;100701.94;7397622;19;20011;-80
2022/04/15 04:29:27;;;;;;;1.75;0.75;;;;;;;8.01;100.00;100698.50;7396119;19;20029;-79
2022/04/15 04:31:53;;;;;;;0.80;0.65;;;;;;;7.99;100.00;100700.91;7394689;19;20089;-79
2022/04/15 04:34:20;;;;;;;1.35;1.20;;;;;;;7.99;100.00;100706.47;7393203;19;20486;-80
2022/04/15 04:36:46;;;;;;;1.52;0.88;;;;;;;7.95;100.00;100703.78;7394252;19;20559;-80
2022/04/15 04:39:12;;;;;;;0.68;0.38;;;;;;;7.90;100.00;100703.53;7390787;19;20429;-80
2022/04/15 04:41:39;;;;;;;1.40;0.63;;;;;;;7.92;100.00;100706.66;7397012;19;20330;-79
2022/04/15 04:44:06;;;;;;;0.65;0.65;;;;;;;7.91;100.00;100703.09;7395437;19;20014;-79
2022/04/15 04:46:34;;;;;;;1.83;1.00;;;;;;;7.90;100.00;100703.53;7396924;19;20021;-78
2022/04/15 04:49:00;;;;;;;1.63;1.13;;;;;;;7.81;100.00;100711.69;7394432;19;20019;-78
2022/04/15 04:51:26;;;;;;;1.15;0.60;;;;;;;7.76;100.00;100709.44;7395040;19;20035;-80
2022/04/15 04:53:53;;;;;;;1.10;0.88;;;;;;;7.75;100.00;100714.22;7398179;19;20015;-79
2022/04/15 04:56:19;;;;;;;0.82;0.82;;;;;;;7.77;100.00;100716.56;7393228;19;20467;-80
2022/04/15 04:58:45;;;;;;;2.63;0.55;;;;;;;7.74;100.00;100711.88;7393463;19;20014;-79
2022/04/15 05:01:11;;;;;;;1.25;0.93;;;;;;;7.66;100.00;100722.38;7398437;19;20011;-80
2022/04/15 05:03:37;;;;;;;1.77;1.38;;;;;;;7.68;100.00;100724.72;7398508;19;20106;-80
2022/04/15 05:06:03;;;;;;;2.38;1.63;;;;;;;7.67;100.00;100729.47;7399132;19;20058;-80
2022/04/15 05:08:29;;;;;;;1.73;1.30;;;;;;;7.65;100.00;100729.13;7398476;19;20022;-80
2022/04/15 05:10:56;;;;;;;6.13;1.20;;;;;;;7.67;100.00;100739.78;7392817;19;20023;-80
2022/04/15 05:13:22;;;;;;;2.55;0.82;;;;;;;7.72;100.00;100742.03;7392682;19;20019;-80
2022/04/15 05:15:48;;;;;;;1.05;0.93;;;;;;;7.75;100.00;100735.63;7393172;19;20048;-80
2022/04/15 05:18:14;;;;;;;4.03;1.27;;;;;;;7.84;100.00;100749.66;7396008;19;20026;-80
2022/04/15 05:20:40;;;;;;;6.10;1.15;;;;;;;7.89;100.00;100747.13;7396576;19;20110;-80
2022/04/15 05:23:07;;;;;;;1.85;0.93;;;;;;;7.92;100.00;100745.47;7395040;19;20080;-81
2022/04/15 05:25:33;;;;;;;2.47;1.25;;;;;;;7.97;100.00;100753.28;7398061;19;20016;-80
2022/04/15 05:27:59;;;;;;;4.97;1.35;;;;;;;8.04;100.00;100758.63;7394556;19;20010;-80
2022/04/15 05:30:25;;;;;;;3.65;1.30;;;;;;;8.09;100.00;100761.66;7391238;19;20015;-80
2022/04/15 05:32:51;;;;;;;3.33;1.17;;;;;;;8.26;100.00;100770.75;7393994;19;20021;-81
2022/04/15 05:35:18;;;;;;;6.32;1.05;;;;;;;8.42;100.00;100762.38;7392335;19;20506;-80
2022/04/15 05:37:44;;;;;;;2.95;1.00;;;;;;;8.53;100.00;100765.66;7394576;19;20358;-80
2022/04/15 05:40:10;;;;;;;0.38;0.38;;;;;;;8.63;100.00;100767.34;7389777;19;20014;-80
2022/04/15 05:42:37;;;;;;;1.40;1.25;;;;;;;8.74;100.00;100767.81;7392582;19;20011;-79
2022/04/15 05:45:03;;;;;;;1.30;0.77;;;;;;;8.89;100.00;100774.50;7392507;19;20018;-80
2022/04/15 05:47:29;;;;;;;3.40;1.15;;;;;;;9.00;100.00;100780.53;7391136;19;20014;-80
2022/04/15 05:49:55;;;;;;;3.58;1.35;;;;;;;9.12;100.00;100782.53;7390450;19;20022;-79
2022/04/15 05:52:22;;;;;;;2.60;0.55;;;;;;;9.24;100.00;100775.44;7393492;19;20021;-80
2022/04/15 05:54:48;;;;;;;0.70;0.70;;;;;;;9.30;100.00;100781.22;7395691;19;20364;-79
2022/04/15 05:57:14;;;;;;;4.00;1.60;;;;;;;9.38;100.00;100782.53;7393217;19;20019;-79
2022/04/15 05:59:41;;;;;;;1.15;1.05;;;;;;;9.45;100.00;100787.88;7390235;19;20025;-80
2022/04/15 06:02:07;;;;;;;2.90;1.50;;;;;;;9.48;100.00;100778.66;7392515;19;20024;-80
2022/04/15 06:04:33;;;;;;;5.45;1.17;;;;;;;9.49;100.00;100781.00;7393496;19;20438;-80
2022/04/15 06:06:59;;;;;;;0.50;0.40;;;;;;;9.58;100.00;100783.09;7393074;19;20022;-79
2022/04/15 06:09:26;;;;;;;4.32;1.77;;;;;;;9.67;100.00;100775.66;7393523;19;20030;-79
2022/04/15 06:11:55;;;;;;;1.75;0.98;;;;;;;9.78;100.00;100784.44;7389854;19;20476;-80
2022/04/15 06:14:22;;;;;;;0.88;0.88;;;;;;;9.88;100.00;100788.06;7389325;19;20022;-79
2022/04/15 06:16:49;;;;;;;1.23;0.82;;;;;;;9.92;100.00;100785.94;7391416;19;20370;-80
2022/04/15 06:19:16;;;;;;;1.40;0.98;;;;;;;10.04;100.00;100790.72;7391117;19;20595;-80
2022/04/15 06:21:43;;;;;;;3.50;0.73;;;;;;;10.10;100.00;100786.13;7391775;19;20006;-80
2022/04/15 06:24:10;;;;;;;1.67;0.80;;;;;;;10.15;100.00;100784.81;7390787;19;20025;-80
2022/04/15 06:26:36;;;;;;;0.73;0.73;;;;;;;10.25;100.00;100794.78;7391082;19;20015;-79
2022/04/15 06:29:05;;;;;;;2.38;1.55;;;;;;;10.35;100.00;100794.41;7390218;19;20014;-79
2022/04/15 06:31:31;;;;;;;1.70;1.10;;;;;;;10.46;100.00;100791.28;7390154;19;20018;-79
2022/04/15 06:33:57;;;;;;;3.15;1.45;;;;;;;10.57;100.00;100792.44;7391840;19;20484;-79
2022/04/15 06:36:24;;;;;;;3.40;0.90;;;;;;;10.71;100.00;100793.94;7390429;19;20081;-79
2022/04/15 06:38:50;;;;;;;1.65;0.85;;;;;;;10.80;100.00;100796.78;7390764;19;20503;-80
2022/04/15 06:41:16;;;;;;;1.90;1.30;;;;;;;10.86;100.00;100802.53;7392464;19;20024;-78
2022/04/15 06:43:42;;;;;;;3.53;1.23;;;;;;;10.93;100.00;100810.66;7391523;19;20023;-79
2022/04/15 06:46:08;;;;;;;2.00;1.75;;;;;;;11.05;100.00;100809.78;7393035;19;20486;-80
2022/04/15 06:48:34;;;;;;;2.05;1.60;;;;;;;11.12;100.00;100803.94;7393755;19;20017;-79
2022/04/15 06:51:02;;;;;;;6.30;1.55;;;;;;;11.10;100.00;100817.56;7393005;19;20017;-79
2022/04/15 06:53:29;;;;;;;3.92;2.28;;;;;;;11.19;100.00;100818.41;7386795;19;20043;-79
2022/04/15 06:55:55;;;;;;;4.72;1.58;;;;;;;11.24;100.00;100817.78;7389007;19;20691;-80
2022/04/15 06:58:21;;;;;;;3.85;2.75;;;;;;;11.38;100.00;100819.25;7390716;19;20574;-80
2022/04/15 07:00:48;;;;;;;6.38;2.10;;;;;;;11.44;100.00;100820.22;7390734;19;20014;-79
2022/04/15 07:03:15;;;;;;;1.77;1.08;;;;;;;11.46;100.00;100828.91;7390129;19;20022;-79
2022/04/15 07:05:42;;;;;;;3.45;2.10;;;;;;;11.53;100.00;100813.91;7390443;19;20022;-79
2022/04/15 07:08:09;;;;;;;4.20;2.15;;;;;;;11.58;100.00;100822.47;7391099;19;20014;-81
2022/04/15 07:10:39;;;;;;;3.78;2.47;;;;;;;11.62;100.00;100817.50;7393429;19;20011;-81
2022/04/15 07:13:06;;;;;;;1.85;0.98;;;;;;;11.65;100.00;100822.16;7391879;19;20075;-81
2022/04/15 07:15:32;;;;;;;4.30;1.80;;;;;;;11.74;100.00;100813.84;7390259;19;20011;-81
2022/04/15 07:18:03;;;;;;;3.17;1.85;;;;;;;11.81;100.00;100819.16;7390955;19;20015;-82
2022/04/15 07:20:29;;;;;;;4.00;1.80;;;;;;;12.00;100.00;100815.16;7392704;19;20527;-81
2022/04/15 07:22:59;;;;;;;3.40;1.63;;;;;;;12.16;100.00;100817.69;7391034;19;20015;-81
2022/04/15 07:25:26;;;;;;;5.60;2.03;;;;;;;12.26;100.00;100821.25;7390578;19;20014;-80
2022/04/15 07:27:53;;;;;;;6.18;2.65;;;;;;;12.40;100.00;100815.09;7388776;19;20074;-81
2022/04/15 07:30:19;;;;;;;4.82;3.22;;;;;;;12.58;100.00;100817.09;7389247;19;20046;-81
2022/04/15 07:32:46;;;;;;;9.32;3.70;;;;;;;12.71;100.00;100820.53;7389775;19;20026;-81
2022/04/15 07:35:12;;;;;;;6.07;3.03;;;;;;;12.95;100.00;100827.00;7390172;19;20021;-80
2022/04/15 07:37:38;;;;;;;7.15;2.75;;;;;;;13.07;100.00;100816.91;7390691;19;20480;-81
2022/04/15 07:40:05;;;;;;;9.35;2.75;;;;;;;13.20;100.00;100815.50;7391489;19;20339;-81
2022/04/15 07:42:31;;;;;;;10.13;3.88;;;;;;;13.47;100.00;100821.00;7390412;19;20081;-81
2022/04/15 07:44:58;;;;;;;5.60;3.28;;;;;;;13.67;100.00;100824.03;7388958;19;20002;-80
2022/04/15 07:47:24;;;;;;;6.00;1.70;;;;;;;13.93;100.00;100820.78;7391367;19;20022;-81
2022/04/15 07:49:51;;;;;;;5.70;2.97;;;;;;;14.08;100.00;100827.22;7389664;19;20051;-80
2022/04/15 07:52:17;;;;;;;4.55;1.95;;;;;;;14.19;100.00;100827.47;7384508;19;20094;-81
2022/04/15 07:54:44;;;;;;;5.75;3.17;;;;;;;14.35;100.00;100821.47;7385652;19;20014;-79
2022/04/15 07:57:10;;;;;;;2.85;2.35;;;;;;;14.45;100.00;100817.34;7388445;19;20015;-79
2022/04/15 07:59:36;;;;;;;4.38;2.67;;;;;;;14.46;100.00;100818.13;7390317;19;20039;-78
2022/04/15 08:02:03;;;;;;;4.97;2.65;;;;;;;14.57;100.00;100819.13;7389356;19;20038;-80
2022/04/15 08:04:34;;;;;;;4.03;2.90;;;;;;;14.71;100.00;100817.59;7392343;19;20411;-79
2022/04/15 08:07:01;;;;;;;;;;;;;;;15.05;100.00;100823.34;7397726;19;20469;-79
2022/04/15 08:09:27;;;;;;;7.22;2.55;;;;;;;15.41;100.00;100821.41;7394025;19;19915;-79
2022/04/15 08:11:54;;;;;;;5.03;2.42;;;;;;;15.65;100.00;100816.47;7394365;19;20014;-81
2022/04/15 08:14:21;;;;;;;6.05;2.20;;;;;;;15.68;100.00;100821.88;7394098;19;20018;-79
2022/04/15 08:16:47;;;;;;;7.25;2.60;;;;;;;15.68;100.00;100821.13;7393542;19;20548;-80
2022/04/15 08:19:13;;;;;;;9.55;2.53;;;;;;;15.84;100.00;100815.75;7393270;19;20504;-78
2022/04/15 08:21:39;;;;;;;4.40;2.05;;;;;;;15.89;100.00;100819.91;7393655;19;20391;-79
2022/04/15 08:24:06;;;;;;;6.28;3.30;;;;;;;15.92;100.00;100822.50;7395281;19;20496;-81
2022/04/15 08:26:32;;;;;;;29.58;8.23;;;;;;;16.06;100.00;100818.09;7393775;19;20077;-80
2022/04/15 08:28:58;;;;;;;6.63;2.90;;;;;;;16.19;100.00;100817.75;7400278;19;20038;-81
2022/04/15 08:31:26;;;;;;;8.40;3.15;;;;;;;16.43;100.00;100821.94;7396997;19;20018;-81
2022/04/15 08:33:52;;;;;;;7.40;2.83;;;;;;;16.49;100.00;100814.31;7391988;19;20014;-81
2022/04/15 08:36:18;;;;;;;3.60;2.42;;;;;;;16.56;100.00;100821.59;7392070;19;20026;-80
2022/04/15 08:38:44;;;;;;;7.07;2.25;;;;;;;16.67;100.00;100816.84;7390003;19;20026;-81
2022/04/15 08:41:13;;;;;;;4.65;2.00;;;;;;;16.78;100.00;100823.88;7394806;19;20760;-81
2022/04/15 08:43:41;;;;;;;4.57;1.55;;;;;;;16.89;100.00;100818.38;7392578;19;20023;-81
2022/04/15 08:46:08;;;;;;;4.70;1.80;;;;;;;16.86;100.00;100816.53;7391499;19;20453;-80
2022/04/15 08:48:36;;;;;;;9.68;2.25;;;;;;;16.83;100.00;100811.94;7393624;19;20018;-81
2022/04/15 08:51:04;;;;;;;6.75;2.28;;;;;;;16.80;100.00;100818.53;7396420;19;20686;-80
2022/04/15 08:53:32;;;;;;;3.72;1.95;;;;;;;16.92;100.00;100814.56;7391380;19;20019;-79
2022/04/15 08:56:00;;;;;;;10.38;2.13;;;;;;;17.10;100.00;100817.03;7394168;19;20349;-80
2022/04/15 08:58:27;;;;;;;5.65;2.38;;;;;;;17.28;100.00;100823.09;7395644;19;20075;-81
2022/04/15 09:00:54;;;;;;;4.03;1.67;;;;;;;17.50;100.00;100821.75;7397755;19;20045;-81
2022/04/15 09:03:20;;;;;;;2.33;0.95;;;;;;;17.63;100.00;100828.53;7391621;19;20022;-81
2022/04/15 09:05:53;;;;;;;3.53;1.70;;;;;;;17.73;100.00;100831.94;7395533;19;20018;-81
2022/04/15 09:08:20;;;;;;;3.63;1.73;;;;;;;17.78;100.00;100831.97;7392915;19;20543;-80
2022/04/15 09:10:55;;;;;;;8.50;2.33;;;;;;;17.79;100.00;100827.13;7393853;19;20014;-80
2022/04/15 09:13:23;;;;;;;2.80;1.40;;;;;;;17.89;100.00;100829.22;7395021;19;20082;-80
2022/04/15 09:15:49;;;;;;;2.30;1.23;;;;;;;18.03;100.00;100831.13;7392263;19;20035;-85
2022/04/15 09:18:36;;;;;;;3.25;1.75;;;;;;;18.11;100.00;100828.59;7393621;19;20018;-80
2022/04/15 09:21:19;;;;;;;3.83;1.00;;;;;;;18.10;100.00;100827.06;7397838;19;20023;-80
2022/04/15 09:23:51;;;;;;;4.25;1.52;;;;;;;18.10;100.00;100832.72;7393570;19;20512;-80
2022/04/15 09:26:17;;;;;;;5.55;1.88;;;;;;;18.19;100.00;100829.69;7394185;19;20006;-80
2022/04/15 09:28:44;;;;;;;4.50;1.83;;;;;;;18.26;100.00;100828.44;7394376;19;20015;-80
2022/04/15 09:31:13;;;;;;;2.47;1.23;;;;;;;18.42;100.00;100830.56;7394499;19;20018;-80
2022/04/15 09:34:00;;;;;;;1.95;1.02;;;;;;;18.61;100.00;100826.81;7390328;19;20521;-80
2022/04/15 09:36:30;;;;;;;8.88;1.63;;;;;;;18.71;100.00;100825.28;7392241;19;20094;-81
2022/04/15 09:39:02;;;;;;;3.75;1.05;;;;;;;18.79;100.00;100820.72;7388914;19;20033;-80
2022/04/15 09:41:32;;;;;;;4.22;1.33;;;;;;;18.96;100.00;100834.88;7396797;19;20096;-80
2022/04/15 09:44:00;;;;;;;1.77;1.20;;;;;;;18.93;100.00;100824.59;7395697;19;20022;-85
2022/04/15 09:46:29;;;;;;;3.33;1.13;;;;;;;19.03;100.00;100825.91;7393721;19;20027;-80
2022/04/15 09:49:03;;;;;;;3.53;0.82;;;;;;;19.11;100.00;100835.41;7392117;19;20096;-80
2022/04/15 09:51:33;;;;;;;1.98;0.70;;;;;;;19.26;100.00;100835.94;7395710;19;20046;-80
2022/04/15 09:54:09;;;;;;;11.35;1.08;;;;;;;19.51;100.00;100834.19;7393253;19;20027;-81
2022/04/15 09:56:39;;;;;;;2.03;0.47;;;;;;;19.77;100.00;100837.53;7389425;19;20031;-80
2022/04/15 09:59:08;;;;;;;2.80;0.73;;;;;;;19.82;100.00;100830.28;7393719;19;20097;-80
2022/04/15 10:01:40;;;;;;;3.90;1.13;;;;;;;19.78;100.00;100824.91;7395700;19;20268;-80
2022/04/15 10:04:08;;;;;;;4.93;0.55;;;;;;;19.84;100.00;100839.06;7392185;19;20010;-80
2022/04/15 10:06:35;;;;;;;2.00;1.05;;;;;;;19.94;100.00;100837.50;7391209;19;20596;-80
2022/04/15 10:09:03;;;;;;;6.38;0.73;;;;;;;20.00;100.00;100835.41;7391766;19;20481;-81
2022/04/15 10:11:35;;;;;;;3.25;0.60;;;;;;;20.16;100.00;100837.44;7395320;19;20060;-80
2022/04/15 10:14:06;;;;;;;2.55;0.65;;;;;;;20.18;100.00;100834.88;7388196;19;20367;-81
2022/04/15 10:16:33;;;;;;;1.50;0.60;;;;;;;20.28;100.00;100839.75;7390198;19;20015;-80
2022/04/15 10:19:01;;;;;;;3.22;0.40;;;;;;;20.59;100.00;100841.44;7391274;19;20025;-80
2022/04/15 10:21:32;;;;;;;2.35;0.43;;;;;;;20.79;100.00;100838.22;7395584;19;20055;-80
2022/04/15 10:24:00;;;;;;;;;;;;;;;20.75;100.00;100823.59;7393471;19;20018;-80
2022/04/15 10:26:32;;;;;;;1.45;0.55;;;;;;;20.54;100.00;100832.97;7392042;19;19947;-79
2022/04/15 10:29:03;;;;;;;1.35;0.40;;;;;;;20.45;100.00;100825.53;7394380;19;20376;-79
2022/04/15 10:31:41;;;;;;;3.03;0.20;;;;;;;20.51;100.00;100823.44;7393315;19;20676;-80
2022/04/15 10:34:09;;;;;;;1.52;0.38;;;;;;;20.53;100.00;100815.19;7391029;19;20022;-80
2022/04/15 10:36:37;;;;;;;8.30;0.77;;;;;;;20.53;100.00;100818.03;7388945;19;20026;-79
2022/04/15 10:39:03;;;;;;;3.20;0.82;;;;;;;20.54;100.00;100816.75;7389968;19;20006;-80
2022/04/15 10:41:50;;;;;;;0.60;0.60;;;;;;;20.63;100.00;100827.78;7397945;19;20011;-80
2022/04/15 10:44:27;;;;;;;3.05;0.47;;;;;;;20.70;100.00;100821.56;7391414;19;20458;-82
2022/04/15 10:47:09;;;;;;;0.98;0.60;;;;;;;20.64;100.00;100823.63;7391426;19;20015;-80
2022/04/15 10:49:39;;;;;;;3.60;0.55;;;;;;;20.82;100.00;100831.53;7390879;19;20451;-81
2022/04/15 10:52:21;;;;;;;3.17;0.68;;;;;;;20.91;100.00;100822.72;7389155;19;20018;-81
2022/04/15 10:54:51;;;;;;;0.93;0.43;;;;;;;20.93;100.00;100820.16;7390583;19;20062;-80
2022/04/15 10:57:20;;;;;;;1.93;0.93;;;;;;;20.92;100.00;100824.25;7389967;19;20503;-80
2022/04/15 11:02:44;;;;;;;1.27;0.82;;;;;;;20.90;100.00;100820.41;7391887;19;20026;-80
2022/04/15 11:05:12;;;;;;;1.10;0.90;;;;;;;21.00;100.00;100819.59;7389985;19;20022;-79
2022/04/15 11:07:49;;;;;;;1.92;0.95;;;;;;;21.07;100.00;100813.38;7391194;19;20022;-81
2022/04/15 11:10:18;;;;;;;1.65;0.82;;;;;;;21.33;100.00;100809.34;7391317;19;20035;-81
2022/04/15 11:12:45;;;;;;;1.80;0.60;;;;;;;21.53;100.00;100803.22;7391199;19;20019;-80
2022/04/15 11:15:12;;;;;;;5.90;1.30;;;;;;;21.67;100.00;100804.91;7389032;19;20022;-79
2022/04/15 11:17:41;;;;;;;3.50;0.28;;;;;;;22.01;100.00;100803.31;7390411;19;20512;-80
2022/04/15 11:20:08;;;;;;;2.55;0.85;;;;;;;22.37;100.00;100809.63;7388921;19;20409;-80
2022/04/15 11:22:43;;;;;;;1.85;0.50;;;;;;;22.75;100.00;100807.59;7390697;19;20029;-81
2022/04/15 11:25:11;;;;;;;0.93;0.35;;;;;;;22.72;100.00;100800.16;7390093;19;20022;-80
2022/04/15 11:27:40;;;;;;;1.38;0.75;;;;;;;22.84;100.00;100798.69;7390608;19;20039;-80